Time;durP1;ratioP1;P1;durP2;ratioP2;P2;SDS_P1;SDS_P2;PMS_P1;PMS_P2;Temp;Humidity;BMP_temperature;BMP_pressure;BME280_temperature;BME280_humidity;BME280_pressure;Samples;Min_cycle;Max_cycle;Signal;HPM_P1;HPM_P2
2021/08/22 00:01:58;;;;;;;;;6.75;5.75;;;;;;;;5054944;28;48770;-89
2021/08/22 00:04:23;;;;;;;;;5.00;5.00;;;;;;;;5071538;28;46283;-87
2021/08/22 00:06:48;;;;;;;;;5.00;5.00;;;;;;;;5049601;28;45463;-90
2021/08/22 00:09:14;;;;;;;;;7.67;6.67;;;;;;;;5076455;27;45364;-89
2021/08/22 00:11:39;;;;;;;;;8.33;7.00;;;;;;;;5068814;27;45387;-88
2021/08/22 00:14:04;;;;;;;;;5.00;5.00;;;;;;;;5068676;28;45445;-86
2021/08/22 00:16:29;;;;;;;;;6.00;6.00;;;;;;;;5070734;28;45422;-88
2021/08/22 00:18:55;;;;;;;;;8.00;5.25;;;;;;;;5076896;27;45489;-90
2021/08/22 00:21:20;;;;;;;;;5.00;5.00;;;;;;;;5070105;27;45488;-89
2021/08/22 00:23:45;;;;;;;;;5.75;5.75;;;;;;;;5068943;27;45402;-87
2021/08/22 00:26:10;;;;;;;;;6.67;6.00;;;;;;;;5067021;27;45431;-90
2021/08/22 00:28:36;;;;;;;;;8.33;6.00;;;;;;;;5055936;28;45693;-89
2021/08/22 00:31:01;;;;;;;;;6.33;5.67;;;;;;;;5073023;27;45488;-90
2021/08/22 00:33:27;;;;;;;;;5.33;5.33;;;;;;;;5051480;28;47365;-90
2021/08/22 00:35:52;;;;;;;;;7.75;7.00;;;;;;;;5054679;28;45774;-91
2021/08/22 00:38:18;;;;;;;;;6.75;5.50;;;;;;;;5055802;27;45612;-89
2021/08/22 00:40:43;;;;;;;;;6.67;6.67;;;;;;;;5063583;27;45463;-88
2021/08/22 00:43:08;;;;;;;;;6.00;6.00;;;;;;;;5072673;27;45577;-89
2021/08/22 00:45:37;;;;;;;;;6.25;6.25;;;;;;;;5068248;27;45515;-89
2021/08/22 00:48:02;;;;;;;;;8.00;6.75;;;;;;;;5067990;27;45549;-91
2021/08/22 00:50:27;;;;;;;;;13.25;8.00;;;;;;;;5067374;27;45796;-91
2021/08/22 00:52:53;;;;;;;;;8.33;5.67;;;;;;;;5068098;28;45508;-91
2021/08/22 00:55:19;;;;;;;;;15.75;8.00;;;;;;;;5070174;28;45700;-88
2021/08/22 00:57:44;;;;;;;;;6.25;6.25;;;;;;;;5068604;28;45505;-88
2021/08/22 01:00:10;;;;;;;;;9.33;7.00;;;;;;;;5052235;28;46627;-91
2021/08/22 01:02:43;;;;;;;;;6.50;6.50;;;;;;;;5074012;28;45359;-91
2021/08/22 01:05:08;;;;;;;;;9.00;7.00;;;;;;;;5071002;28;46108;-90
2021/08/22 01:07:52;;;;;;;;;16.00;7.67;;;;;;;;5058388;28;45482;-91
2021/08/22 01:10:19;;;;;;;;;7.00;5.75;;;;;;;;5070115;27;45382;-91
2021/08/22 01:12:47;;;;;;;;;8.00;6.00;;;;;;;;5068120;28;45383;-90
2021/08/22 01:15:13;;;;;;;;;11.50;8.00;;;;;;;;5062551;28;46687;-89
2021/08/22 01:17:45;;;;;;;;;8.00;7.75;;;;;;;;5069015;28;45533;-90
2021/08/22 01:20:30;;;;;;;;;7.25;5.75;;;;;;;;5054715;28;45897;-90
2021/08/22 01:22:55;;;;;;;;;5.75;5.75;;;;;;;;5065534;28;46391;-91
2021/08/22 01:25:21;;;;;;;;;9.00;6.00;;;;;;;;5073658;28;45569;-91
2021/08/22 01:27:47;;;;;;;;;7.00;7.00;;;;;;;;5069528;28;45398;-90
2021/08/22 01:30:13;;;;;;;;;7.75;6.50;;;;;;;;5072031;27;45374;-91
2021/08/22 01:32:39;;;;;;;;;11.00;7.00;;;;;;;;5072641;28;45681;-85
2021/08/22 01:35:05;;;;;;;;;11.00;7.00;;;;;;;;5069573;27;45740;-90
2021/08/22 01:37:31;;;;;;;;;7.00;5.50;;;;;;;;5054468;28;45680;-91
2021/08/22 01:39:56;;;;;;;;;7.50;7.50;;;;;;;;5056936;28;45521;-89
2021/08/22 01:42:21;;;;;;;;;5.00;5.00;;;;;;;;5080098;27;46152;-91
2021/08/22 01:44:47;;;;;;;;;9.00;7.00;;;;;;;;5067939;28;45764;-90
2021/08/22 01:47:12;;;;;;;;;6.50;6.50;;;;;;;;5073440;27;45540;-90
2021/08/22 01:49:39;;;;;;;;;8.67;6.00;;;;;;;;5071627;27;45659;-92
2021/08/22 01:52:06;;;;;;;;;7.75;6.50;;;;;;;;5057074;28;47131;-90
2021/08/22 01:54:31;;;;;;;;;7.25;5.75;;;;;;;;5077093;27;45439;-83
2021/08/22 01:56:57;;;;;;;;;7.33;6.33;;;;;;;;5079361;27;45426;-91
2021/08/22 01:59:22;;;;;;;;;6.67;6.67;;;;;;;;5076706;27;45296;-90
2021/08/22 02:01:47;;;;;;;;;7.33;6.33;;;;;;;;5068815;28;45631;-91
2021/08/22 02:04:12;;;;;;;;;5.75;5.50;;;;;;;;5072739;28;45414;-85
2021/08/22 02:06:47;;;;;;;;;8.00;6.00;;;;;;;;5073094;28;45351;-88
2021/08/22 02:09:12;;;;;;;;;6.00;5.00;;;;;;;;5074083;27;45523;-89
2021/08/22 02:11:41;;;;;;;;;7.75;5.00;;;;;;;;5067497;28;46168;-90
2021/08/22 02:14:07;;;;;;;;;7.00;5.75;;;;;;;;5068926;27;45389;-89
2021/08/22 02:16:33;;;;;;;;;6.00;4.50;;;;;;;;5043167;28;45386;-90
2021/08/22 02:18:59;;;;;;;;;8.25;6.00;;;;;;;;5071125;27;45479;-91
2021/08/22 02:21:25;;;;;;;;;5.00;5.00;;;;;;;;5076169;27;46941;-90
2021/08/22 02:23:52;;;;;;;;;8.25;5.00;;;;;;;;5071703;27;46547;-87
2021/08/22 02:26:18;;;;;;;;;5.50;4.00;;;;;;;;5074139;28;45504;-89
2021/08/22 02:28:43;;;;;;;;;7.25;5.25;;;;;;;;5071262;27;45802;-86
2021/08/22 02:31:11;;;;;;;;;7.25;5.00;;;;;;;;5072448;28;45593;-90
2021/08/22 02:33:36;;;;;;;;;6.75;4.75;;;;;;;;5057332;28;45777;-90
2021/08/22 02:36:01;;;;;;;;;7.00;4.67;;;;;;;;5049907;28;45505;-88
2021/08/22 02:38:26;;;;;;;;;8.00;6.00;;;;;;;;5072597;27;45394;-90
2021/08/22 02:40:51;;;;;;;;;4.67;4.67;;;;;;;;5053035;28;47279;-87
2021/08/22 02:43:17;;;;;;;;;7.00;4.00;;;;;;;;5067280;28;45423;-90
2021/08/22 02:45:42;;;;;;;;;6.33;4.67;;;;;;;;5054931;28;45596;-90
2021/08/22 02:48:07;;;;;;;;;5.25;4.00;;;;;;;;5065385;27;45685;-90
2021/08/22 02:50:32;;;;;;;;;6.33;4.00;;;;;;;;5071808;27;46258;-90
2021/08/22 02:52:57;;;;;;;;;5.33;4.67;;;;;;;;5066708;27;45499;-89
2021/08/22 02:55:23;;;;;;;;;5.00;3.33;;;;;;;;5070531;28;45498;-90
2021/08/22 02:57:48;;;;;;;;;5.50;3.50;;;;;;;;5068905;28;45401;-88
2021/08/22 03:00:13;;;;;;;;;4.33;4.33;;;;;;;;5068151;27;45600;-90
2021/08/22 03:02:39;;;;;;;;;6.50;4.75;;;;;;;;5072158;28;45625;-90
2021/08/22 03:05:04;;;;;;;;;6.00;4.00;;;;;;;;5069379;28;45435;-89
2021/08/22 03:07:29;;;;;;;;;5.50;5.00;;;;;;;;5071474;27;45466;-87
2021/08/22 03:09:55;;;;;;;;;9.00;6.00;;;;;;;;5049876;28;48645;-89
2021/08/22 03:12:20;;;;;;;;;6.75;5.25;;;;;;;;5066430;28;45399;-88
2021/08/22 03:14:45;;;;;;;;;7.67;5.00;;;;;;;;5051951;28;45486;-89
2021/08/22 03:17:10;;;;;;;;;4.67;4.00;;;;;;;;5051477;28;45488;-91
2021/08/22 03:19:35;;;;;;;;;7.33;5.00;;;;;;;;5071285;27;45521;-90
2021/08/22 03:22:01;;;;;;;;;6.33;4.33;;;;;;;;5070114;27;46077;-91
2021/08/22 03:24:26;;;;;;;;;5.00;5.00;;;;;;;;5054096;28;45418;-90
2021/08/22 03:26:51;;;;;;;;;5.67;5.00;;;;;;;;5050247;28;45526;-90
2021/08/22 03:29:16;;;;;;;;;10.00;6.33;;;;;;;;5069371;27;45438;-89
2021/08/22 03:31:41;;;;;;;;;5.67;5.67;;;;;;;;5056374;28;45642;-91
2021/08/22 03:34:07;;;;;;;;;5.33;5.00;;;;;;;;5071993;28;45437;-91
2021/08/22 03:36:32;;;;;;;;;6.00;4.67;;;;;;;;5056106;28;45577;-89
2021/08/22 03:38:57;;;;;;;;;6.00;5.00;;;;;;;;5067188;27;45608;-92
2021/08/22 03:41:22;;;;;;;;;6.67;6.00;;;;;;;;5068199;27;45555;-90
2021/08/22 03:43:48;;;;;;;;;5.33;5.33;;;;;;;;5068670;28;45683;-91
2021/08/22 03:46:13;;;;;;;;;6.00;4.00;;;;;;;;5073763;27;45853;-90
2021/08/22 03:48:38;;;;;;;;;6.00;4.00;;;;;;;;5065386;27;45568;-90
2021/08/22 03:51:03;;;;;;;;;5.67;4.67;;;;;;;;5074062;27;45382;-91
2021/08/22 03:53:28;;;;;;;;;6.00;5.00;;;;;;;;5066951;27;45513;-89
2021/08/22 03:55:54;;;;;;;;;5.33;5.33;;;;;;;;5069750;27;45473;-90
2021/08/22 03:58:19;;;;;;;;;5.67;4.33;;;;;;;;5054130;27;47652;-78
2021/08/22 04:00:44;;;;;;;;;7.33;5.00;;;;;;;;5055723;28;45436;-85
2021/08/22 04:03:09;;;;;;;;;9.33;5.67;;;;;;;;5065053;28;45378;-89
2021/08/22 04:05:35;;;;;;;;;6.00;5.67;;;;;;;;5071625;28;45335;-90
2021/08/22 04:08:00;;;;;;;;;5.67;5.33;;;;;;;;5066742;28;46010;-91
2021/08/22 04:10:26;;;;;;;;;4.75;4.75;;;;;;;;5081130;27;45483;-86
2021/08/22 04:12:52;;;;;;;;;5.50;4.00;;;;;;;;5068098;28;45506;-90
2021/08/22 04:15:17;;;;;;;;;5.50;4.00;;;;;;;;5073554;28;45468;-88
2021/08/22 04:17:42;;;;;;;;;6.00;4.33;;;;;;;;5072564;28;45541;-89
2021/08/22 04:20:08;;;;;;;;;4.00;4.00;;;;;;;;5055327;27;45492;-90
2021/08/22 04:22:36;;;;;;;;;7.25;5.00;;;;;;;;5056770;28;45341;-91
2021/08/22 04:25:01;;;;;;;;;7.00;5.00;;;;;;;;5070648;28;45292;-90
2021/08/22 04:27:27;;;;;;;;;6.00;5.00;;;;;;;;5074205;28;45333;-89
2021/08/22 04:29:52;;;;;;;;;7.67;4.33;;;;;;;;5063487;27;45403;-90
2021/08/22 04:32:18;;;;;;;;;6.33;4.00;;;;;;;;5073216;28;45422;-86
2021/08/22 04:34:43;;;;;;;;;5.00;5.00;;;;;;;;5050759;28;45542;-91
2021/08/22 04:37:08;;;;;;;;;5.33;5.33;;;;;;;;5072425;28;45353;-89
2021/08/22 04:39:34;;;;;;;;;6.00;4.67;;;;;;;;5047620;28;45382;-88
2021/08/22 04:41:59;;;;;;;;;6.33;5.67;;;;;;;;5070388;27;45810;-91
2021/08/22 04:44:24;;;;;;;;;7.33;5.00;;;;;;;;5071207;28;45509;-85
2021/08/22 04:46:49;;;;;;;;;3.67;3.33;;;;;;;;5069144;28;45490;-91
2021/08/22 04:49:15;;;;;;;;;5.33;4.00;;;;;;;;5049239;28;45501;-91
2021/08/22 04:51:40;;;;;;;;;6.00;4.00;;;;;;;;5054174;28;45476;-89
2021/08/22 04:54:05;;;;;;;;;8.00;4.00;;;;;;;;5073694;27;46011;-90
2021/08/22 04:56:30;;;;;;;;;5.00;5.00;;;;;;;;5068170;28;45985;-89
2021/08/22 04:58:55;;;;;;;;;5.00;5.00;;;;;;;;5053678;28;46461;-90
2021/08/22 05:01:21;;;;;;;;;6.00;5.00;;;;;;;;5072143;28;45658;-89
2021/08/22 05:03:46;;;;;;;;;6.75;5.25;;;;;;;;5068858;27;45462;-89
2021/08/22 05:06:11;;;;;;;;;11.00;4.67;;;;;;;;5072645;28;46725;-86
2021/08/22 05:08:37;;;;;;;;;5.00;5.00;;;;;;;;5065419;27;45526;-91
2021/08/22 05:11:02;;;;;;;;;5.00;4.00;;;;;;;;5069180;28;45453;-90
2021/08/22 05:13:28;;;;;;;;;7.75;6.00;;;;;;;;5070769;27;45411;-90
2021/08/22 05:15:56;;;;;;;;;9.00;5.00;;;;;;;;5049443;28;47205;-90
2021/08/22 05:18:22;;;;;;;;;8.25;5.25;;;;;;;;5060591;27;45268;-90
2021/08/22 05:20:47;;;;;;;;;7.25;5.00;;;;;;;;5071185;27;45482;-90
2021/08/22 05:23:12;;;;;;;;;5.33;4.00;;;;;;;;5051289;28;45400;-90
2021/08/22 05:25:37;;;;;;;;;3.00;2.00;;;;;;;;5070230;28;46199;-89
2021/08/22 05:28:03;;;;;;;;;3.00;3.00;;;;;;;;5072304;28;45544;-90
2021/08/22 05:30:28;;;;;;;;;6.00;4.50;;;;;;;;5065526;27;45363;-88
2021/08/22 05:32:53;;;;;;;;;6.00;5.00;;;;;;;;5068325;28;45593;-87
2021/08/22 05:35:18;;;;;;;;;8.00;5.00;;;;;;;;5067251;28;45573;-89
2021/08/22 05:37:43;;;;;;;;;5.00;4.00;;;;;;;;5069169;28;45471;-90
2021/08/22 05:40:11;;;;;;;;;5.00;3.67;;;;;;;;5074528;27;45553;-88
2021/08/22 05:42:36;;;;;;;;;10.75;4.00;;;;;;;;5071115;28;45476;-90
2021/08/22 05:45:02;;;;;;;;;4.33;4.00;;;;;;;;5066413;28;45367;-90
2021/08/22 05:47:27;;;;;;;;;4.00;4.00;;;;;;;;5073411;28;45898;-89
2021/08/22 05:49:52;;;;;;;;;7.33;5.00;;;;;;;;5055598;28;45480;-85
2021/08/22 05:52:18;;;;;;;;;4.33;4.00;;;;;;;;5073801;27;45339;-90
2021/08/22 05:54:43;;;;;;;;;7.67;4.00;;;;;;;;5073624;27;45268;-90
2021/08/22 05:57:08;;;;;;;;;5.67;5.67;;;;;;;;5058029;28;45893;-90
2021/08/22 05:59:33;;;;;;;;;4.33;4.00;;;;;;;;5056696;28;45418;-90
2021/08/22 06:01:59;;;;;;;;;4.00;3.67;;;;;;;;5078798;27;45540;-89
2021/08/22 06:04:24;;;;;;;;;5.75;4.25;;;;;;;;5051775;28;47062;-88
2021/08/22 06:06:49;;;;;;;;;6.00;3.67;;;;;;;;5079016;28;45771;-86
2021/08/22 06:09:15;;;;;;;;;4.33;4.00;;;;;;;;5074637;27;45357;-89
2021/08/22 06:11:40;;;;;;;;;3.00;3.00;;;;;;;;5071040;28;45407;-91
2021/08/22 06:14:05;;;;;;;;;9.67;4.00;;;;;;;;5051606;28;46166;-90
2021/08/22 06:16:30;;;;;;;;;5.00;4.67;;;;;;;;5072178;27;45598;-89
2021/08/22 06:18:57;;;;;;;;;8.67;5.00;;;;;;;;5071679;27;45694;-90
2021/08/22 06:21:23;;;;;;;;;3.00;3.00;;;;;;;;5052953;28;45461;-88
2021/08/22 06:23:48;;;;;;;;;6.00;5.00;;;;;;;;5053941;28;47238;-90
2021/08/22 06:26:13;;;;;;;;;3.00;3.00;;;;;;;;5066410;28;45432;-89
2021/08/22 06:28:38;;;;;;;;;4.00;4.00;;;;;;;;5070209;27;45700;-87
2021/08/22 06:31:03;;;;;;;;;5.67;4.33;;;;;;;;5057784;28;45472;-88
2021/08/22 06:33:29;;;;;;;;;5.33;4.33;;;;;;;;5054414;28;48205;-89
2021/08/22 06:36:00;;;;;;;;;5.00;3.33;;;;;;;;5071270;28;45292;-89
2021/08/22 06:38:25;;;;;;;;;3.00;1.50;;;;;;;;5073592;28;45454;-88
2021/08/22 06:40:51;;;;;;;;;7.50;5.50;;;;;;;;5054579;27;45500;-90
2021/08/22 06:43:16;;;;;;;;;8.25;4.50;;;;;;;;5053567;28;47382;-90
2021/08/22 06:45:41;;;;;;;;;6.00;3.00;;;;;;;;5075501;28;45542;-88
2021/08/22 06:48:07;;;;;;;;;3.00;3.00;;;;;;;;5074775;28;45506;-88
2021/08/22 06:50:33;;;;;;;;;4.25;4.00;;;;;;;;5046544;27;45481;-90
2021/08/22 06:52:58;;;;;;;;;4.67;4.00;;;;;;;;5068252;28;45582;-89
2021/08/22 06:55:24;;;;;;;;;2.75;2.75;;;;;;;;5055136;28;45536;-89
2021/08/22 06:57:49;;;;;;;;;7.67;4.00;;;;;;;;5071500;28;45379;-88
2021/08/22 07:00:15;;;;;;;;;5.00;5.00;;;;;;;;5070249;27;45553;-88
2021/08/22 07:02:41;;;;;;;;;4.00;4.00;;;;;;;;5055633;28;46225;-89
2021/08/22 07:05:06;;;;;;;;;2.25;2.25;;;;;;;;5049258;28;46062;-88
2021/08/22 07:07:31;;;;;;;;;3.25;3.25;;;;;;;;5056655;28;45597;-90
2021/08/22 07:09:57;;;;;;;;;4.00;3.00;;;;;;;;5068803;27;45683;-89
2021/08/22 07:12:22;;;;;;;;;4.67;4.00;;;;;;;;5074622;28;46205;-89
2021/08/22 07:14:47;;;;;;;;;3.67;3.67;;;;;;;;5069023;28;45563;-89
2021/08/22 07:17:15;;;;;;;;;4.00;4.00;;;;;;;;5072447;28;45562;-86
2021/08/22 07:19:40;;;;;;;;;4.00;3.00;;;;;;;;5065794;27;45591;-90
2021/08/22 07:22:06;;;;;;;;;3.50;3.00;;;;;;;;5073883;27;45491;-80
2021/08/22 07:24:31;;;;;;;;;4.00;2.75;;;;;;;;5071632;27;45458;-80
2021/08/22 07:26:56;;;;;;;;;4.00;3.33;;;;;;;;5069639;28;45392;-79
2021/08/22 07:29:21;;;;;;;;;4.33;3.00;;;;;;;;5070221;27;45497;-78
2021/08/22 07:31:47;;;;;;;;;3.00;3.00;;;;;;;;5069958;28;46860;-79
2021/08/22 07:34:12;;;;;;;;;5.67;3.33;;;;;;;;5071274;28;45561;-80
2021/08/22 07:36:37;;;;;;;;;4.00;4.00;;;;;;;;5071233;28;45376;-80
2021/08/22 07:39:02;;;;;;;;;5.00;3.00;;;;;;;;5065201;27;45438;-80
2021/08/22 07:41:27;;;;;;;;;4.00;3.67;;;;;;;;5068737;28;46096;-79
2021/08/22 07:43:53;;;;;;;;;5.00;3.00;;;;;;;;5067122;28;45383;-80
2021/08/22 07:46:18;;;;;;;;;5.33;2.33;;;;;;;;5068893;28;45550;-78
2021/08/22 07:48:43;;;;;;;;;3.00;3.00;;;;;;;;5061810;27;45429;-77
2021/08/22 07:51:08;;;;;;;;;4.00;2.00;;;;;;;;5066327;27;45498;-77
2021/08/22 07:53:36;;;;;;;;;5.00;3.00;;;;;;;;5069115;28;45561;-79
2021/08/22 07:56:02;;;;;;;;;3.00;3.00;;;;;;;;5073004;27;45528;-78
2021/08/22 07:58:27;;;;;;;;;2.50;2.00;;;;;;;;5067976;28;45347;-77
2021/08/22 08:00:52;;;;;;;;;3.67;3.00;;;;;;;;5070944;27;45623;-78
2021/08/22 08:03:17;;;;;;;;;4.33;3.00;;;;;;;;5071690;28;45474;-78
2021/08/22 08:05:43;;;;;;;;;3.00;3.00;;;;;;;;5066525;28;45442;-78
2021/08/22 08:08:08;;;;;;;;;5.33;2.67;;;;;;;;5064467;27;45820;-79
2021/08/22 08:10:33;;;;;;;;;3.50;3.50;;;;;;;;5065699;27;46042;-79
2021/08/22 08:12:59;;;;;;;;;2.33;2.33;;;;;;;;5051445;28;46049;-78
2021/08/22 08:15:24;;;;;;;;;3.00;3.00;;;;;;;;5068477;27;45622;-81
2021/08/22 08:17:49;;;;;;;;;5.00;2.00;;;;;;;;5067243;28;45506;-79
2021/08/22 08:20:15;;;;;;;;;3.33;2.00;;;;;;;;5072481;27;46083;-79
2021/08/22 08:22:40;;;;;;;;;4.00;3.75;;;;;;;;5076472;27;45437;-79
2021/08/22 08:25:05;;;;;;;;;4.00;2.75;;;;;;;;5078147;27;45559;-78
2021/08/22 08:27:30;;;;;;;;;4.75;3.75;;;;;;;;5071739;28;45562;-78
2021/08/22 08:29:56;;;;;;;;;3.00;2.00;;;;;;;;5071013;27;45493;-78
2021/08/22 08:32:21;;;;;;;;;2.67;2.67;;;;;;;;5068338;27;46005;-78
2021/08/22 08:34:48;;;;;;;;;3.00;3.00;;;;;;;;5053176;28;45461;-78
2021/08/22 08:37:13;;;;;;;;;2.25;2.00;;;;;;;;5068061;28;45613;-78
2021/08/22 08:39:39;;;;;;;;;7.67;3.00;;;;;;;;5071196;27;45461;-78
2021/08/22 08:42:13;;;;;;;;;3.75;3.00;;;;;;;;5069642;28;45545;-80
2021/08/22 08:44:39;;;;;;;;;2.00;2.00;;;;;;;;5038995;28;46773;-80
2021/08/22 08:47:05;;;;;;;;;2.50;2.00;;;;;;;;5061319;28;45445;-79
2021/08/22 08:49:30;;;;;;;;;4.75;2.25;;;;;;;;5062432;27;45478;-80
2021/08/22 08:52:14;;;;;;;;;3.67;3.00;;;;;;;;5068227;28;45398;-78
2021/08/22 08:54:39;;;;;;;;;3.00;2.00;;;;;;;;5070898;28;45355;-78
2021/08/22 08:57:05;;;;;;;;;2.00;2.00;;;;;;;;5067723;28;45631;-80
2021/08/22 08:59:32;;;;;;;;;4.25;2.50;;;;;;;;5053631;28;46247;-80
2021/08/22 09:01:57;;;;;;;;;2.75;2.00;;;;;;;;5069674;28;45505;-77
2021/08/22 09:04:26;;;;;;;;;3.67;3.00;;;;;;;;5068448;28;45623;-78
2021/08/22 09:07:10;;;;;;;;;2.00;2.00;;;;;;;;5069466;28;45477;-78
2021/08/22 09:09:41;;;;;;;;;2.50;1.25;;;;;;;;5070697;27;46250;-77
2021/08/22 09:12:17;;;;;;;;;3.00;3.00;;;;;;;;5070239;28;45950;-76
2021/08/22 09:15:01;;;;;;;;;3.00;2.00;;;;;;;;5069310;28;45485;-76
2021/08/22 09:17:45;;;;;;;;;2.00;2.00;;;;;;;;5069358;27;45514;-76
2021/08/22 09:20:30;;;;;;;;;3.75;2.00;;;;;;;;5068852;27;46111;-77
2021/08/22 09:23:04;;;;;;;;;2.00;2.00;;;;;;;;5070016;27;45385;-76
2021/08/22 09:25:35;;;;;;;;;2.25;2.25;;;;;;;;5070832;28;45615;-76
2021/08/22 09:28:01;;;;;;;;;2.00;2.00;;;;;;;;5073492;28;45562;-78
2021/08/22 09:30:38;;;;;;;;;2.00;1.00;;;;;;;;5074280;27;46296;-77
2021/08/22 09:33:23;;;;;;;;;2.25;2.25;;;;;;;;5072802;27;45706;-76
2021/08/22 09:36:17;;;;;;;;;4.00;2.00;;;;;;;;5070461;28;45519;-78
2021/08/22 09:39:21;;;;;;;;;1.00;1.00;;;;;;;;5070374;27;45458;-78
2021/08/22 09:42:05;;;;;;;;;1.00;1.00;;;;;;;;5009027;28;46028;-78
2021/08/22 09:44:43;;;;;;;;;1.00;1.00;;;;;;;;5008060;28;45657;-78
2021/08/22 09:47:17;;;;;;;;;0.00;0.00;;;;;;;;4993699;28;45377;-78
2021/08/22 09:50:01;;;;;;;;;1.00;1.00;;;;;;;;4993614;28;45520;-79
2021/08/22 09:52:37;;;;;;;;;0.50;0.00;;;;;;;;4999276;28;45580;-86
2021/08/22 09:55:20;;;;;;;;;1.00;1.00;;;;;;;;5007262;28;45887;-92
2021/08/22 09:57:57;;;;;;;;;0.25;0.25;;;;;;;;5010706;28;45581;-88
2021/08/22 10:00:23;;;;;;;;;0.75;0.75;;;;;;;;5012336;28;45754;-92
2021/08/22 10:02:57;;;;;;;;;1.00;1.00;;;;;;;;5007932;28;45576;-92
2021/08/22 10:05:22;;;;;;;;;0.50;0.50;;;;;;;;5003692;28;46038;-93
2021/08/22 10:08:05;;;;;;;;;3.67;1.00;;;;;;;;5011447;28;45518;-92
2021/08/22 10:10:45;;;;;;;;;1.00;1.00;;;;;;;;4996345;28;45556;-92
2021/08/22 10:13:11;;;;;;;;;1.00;1.00;;;;;;;;5040222;28;45772;-91
2021/08/22 10:15:36;;;;;;;;;1.00;1.00;;;;;;;;5048636;28;45698;-90
2021/08/22 10:18:01;;;;;;;;;3.00;1.00;;;;;;;;5049731;28;45495;-91
2021/08/22 10:20:46;;;;;;;;;2.00;0.75;;;;;;;;5053092;28;45378;-92
2021/08/22 10:23:31;;;;;;;;;2.50;1.00;;;;;;;;5056519;28;45417;-92
2021/08/22 10:25:56;;;;;;;;;1.25;1.00;;;;;;;;5041579;28;45333;-91
2021/08/22 10:29:00;;;;;;;;;3.67;0.00;;;;;;;;5049380;28;45343;-91
2021/08/22 10:31:44;;;;;;;;;1.00;1.00;;;;;;;;5073519;28;45377;-95
2021/08/22 10:34:12;;;;;;;;;1.25;0.75;;;;;;;;5076667;27;45554;-95
2021/08/22 10:36:37;;;;;;;;;1.00;1.00;;;;;;;;5082318;28;45904;-90
2021/08/22 10:39:25;;;;;;;;;1.00;1.00;;;;;;;;5071872;28;45532;-94
2021/08/22 10:41:51;;;;;;;;;1.00;1.00;;;;;;;;5081086;27;45396;-96
2021/08/22 10:44:34;;;;;;;;;2.50;2.00;;;;;;;;5076604;27;46231;-96
2021/08/22 10:47:25;;;;;;;;;0.00;0.00;;;;;;;;5056474;28;46766;-96
2021/08/22 10:49:53;;;;;;;;;2.25;1.25;;;;;;;;5029426;28;45377;-95
2021/08/22 10:52:31;;;;;;;;;3.00;1.00;;;;;;;;5022382;28;45560;-94
2021/08/22 10:55:14;;;;;;;;;1.00;1.00;;;;;;;;5035108;28;45728;-94
2021/08/22 10:57:45;;;;;;;;;1.00;1.00;;;;;;;;5017588;28;46404;-94
2021/08/22 11:00:23;;;;;;;;;1.00;1.00;;;;;;;;5041135;28;45392;-96
2021/08/22 11:02:52;;;;;;;;;2.00;1.00;;;;;;;;5021536;28;45560;-86
2021/08/22 11:05:19;;;;;;;;;2.00;2.00;;;;;;;;5035359;28;45815;-91
2021/08/22 11:07:46;;;;;;;;;2.50;2.00;;;;;;;;5030378;28;45685;-94
2021/08/22 11:10:14;;;;;;;;;2.00;1.00;;;;;;;;5035920;28;45526;-95
2021/08/22 11:12:40;;;;;;;;;1.00;1.00;;;;;;;;5017962;28;45479;-89
2021/08/22 11:15:07;;;;;;;;;4.00;2.00;;;;;;;;5032090;28;45386;-94
2021/08/22 11:17:32;;;;;;;;;2.50;2.00;;;;;;;;5036390;28;45371;-93
2021/08/22 11:20:07;;;;;;;;;1.25;1.25;;;;;;;;5033422;28;46718;-91
2021/08/22 11:22:33;;;;;;;;;0.50;0.50;;;;;;;;5035326;28;45949;-91
2021/08/22 11:24:59;;;;;;;;;1.25;1.00;;;;;;;;5039692;28;46137;-92
2021/08/22 11:27:28;;;;;;;;;1.50;1.00;;;;;;;;5054331;28;45359;-93
2021/08/22 11:30:08;;;;;;;;;1.00;1.00;;;;;;;;5047871;28;45362;-94
2021/08/22 11:32:34;;;;;;;;;0.75;0.75;;;;;;;;5044553;28;45380;-92
2021/08/22 11:35:29;;;;;;;;;1.00;1.00;;;;;;;;5055806;28;45441;-92
2021/08/22 11:37:56;;;;;;;;;0.00;0.00;;;;;;;;5060979;28;45550;-93
2021/08/22 11:40:24;;;;;;;;;1.50;1.00;;;;;;;;5068921;28;45523;-95
2021/08/22 11:42:50;;;;;;;;;0.00;0.00;;;;;;;;5073120;28;44859;-94
2021/08/22 11:45:17;;;;;;;;;1.00;1.00;;;;;;;;5087365;28;45403;-96
2021/08/22 11:47:43;;;;;;;;;2.25;1.00;;;;;;;;5090028;28;44962;-94
2021/08/22 11:50:11;;;;;;;;;2.25;1.00;;;;;;;;5067942;28;45422;-93
2021/08/22 11:52:37;;;;;;;;;2.00;0.75;;;;;;;;5102986;27;45249;-84
2021/08/22 11:55:07;;;;;;;;;2.00;1.00;;;;;;;;5073490;27;46948;-95
2021/08/22 11:57:32;;;;;;;;;0.00;0.00;;;;;;;;5093476;27;44927;-87
2021/08/22 11:59:59;;;;;;;;;3.00;0.50;;;;;;;;5095104;27;44792;-86
2021/08/22 12:02:27;;;;;;;;;1.00;1.00;;;;;;;;5086310;27;45370;-90
2021/08/22 12:05:11;;;;;;;;;0.00;0.00;;;;;;;;5093160;27;48600;-82
2021/08/22 12:07:36;;;;;;;;;2.00;0.00;;;;;;;;5077325;27;45735;-89
2021/08/22 12:10:02;;;;;;;;;0.75;0.75;;;;;;;;5059485;28;45376;-91
2021/08/22 12:12:28;;;;;;;;;0.25;0.25;;;;;;;;5052507;28;45390;-90
2021/08/22 12:14:53;;;;;;;;;0.50;0.50;;;;;;;;5069164;27;45685;-90
2021/08/22 12:17:25;;;;;;;;;0.00;0.00;;;;;;;;5070941;27;45446;-93
2021/08/22 12:19:50;;;;;;;;;1.25;0.50;;;;;;;;5077846;27;45588;-86
2021/08/22 12:22:16;;;;;;;;;1.00;1.00;;;;;;;;5065691;27;45997;-93
2021/08/22 12:24:45;;;;;;;;;4.00;1.00;;;;;;;;5073581;28;45388;-88
2021/08/22 12:27:10;;;;;;;;;3.25;2.00;;;;;;;;5068834;28;45499;-92
2021/08/22 12:29:39;;;;;;;;;3.00;2.00;;;;;;;;5057448;28;45627;-94
2021/08/22 12:32:07;;;;;;;;;1.00;1.00;;;;;;;;5053567;27;45740;-84
2021/08/22 12:34:32;;;;;;;;;1.50;1.50;;;;;;;;5068181;27;45765;-78
2021/08/22 12:37:06;;;;;;;;;1.00;1.00;;;;;;;;5051622;28;45500;-88
2021/08/22 12:39:34;;;;;;;;;2.50;1.00;;;;;;;;5071180;27;45454;-90
2021/08/22 12:42:00;;;;;;;;;0.00;0.00;;;;;;;;5067527;27;45596;-91
2021/08/22 12:44:25;;;;;;;;;0.67;0.67;;;;;;;;5051488;28;46152;-93
2021/08/22 12:46:52;;;;;;;;;0.75;0.75;;;;;;;;5067004;27;45749;-92
2021/08/22 12:49:17;;;;;;;;;0.75;0.00;;;;;;;;5058312;28;45493;-89
2021/08/22 12:51:53;;;;;;;;;0.00;0.00;;;;;;;;5072732;27;45796;-92
2021/08/22 12:54:23;;;;;;;;;1.50;0.50;;;;;;;;5064459;27;45831;-91
2021/08/22 12:56:48;;;;;;;;;0.00;0.00;;;;;;;;5072527;27;45607;-90
2021/08/22 12:59:14;;;;;;;;;3.75;0.25;;;;;;;;5071519;27;45390;-86
2021/08/22 13:01:39;;;;;;;;;0.25;0.00;;;;;;;;5073911;27;45478;-90
2021/08/22 13:04:05;;;;;;;;;1.75;0.50;;;;;;;;5073906;27;46529;-88
2021/08/22 13:06:30;;;;;;;;;0.50;0.00;;;;;;;;5067645;27;45329;-90
2021/08/22 13:08:56;;;;;;;;;0.75;0.75;;;;;;;;5075446;27;45512;-91
2021/08/22 13:11:21;;;;;;;;;0.00;0.00;;;;;;;;5072254;27;45490;-94
2021/08/22 13:13:47;;;;;;;;;0.25;0.25;;;;;;;;5072378;27;45581;-90
2021/08/22 13:16:12;;;;;;;;;0.75;0.75;;;;;;;;5054133;28;45922;-93
2021/08/22 13:18:38;;;;;;;;;0.00;0.00;;;;;;;;5080719;27;45352;-94
2021/08/22 13:21:04;;;;;;;;;0.00;0.00;;;;;;;;5074797;27;45415;-93
2021/08/22 13:23:30;;;;;;;;;0.75;0.75;;;;;;;;5062224;27;46677;-87
2021/08/22 13:25:55;;;;;;;;;1.25;0.25;;;;;;;;5057645;27;45743;-94
2021/08/22 13:28:21;;;;;;;;;0.00;0.00;;;;;;;;5056338;28;45483;-89
2021/08/22 13:30:46;;;;;;;;;0.75;0.25;;;;;;;;5075700;27;45872;-88
2021/08/22 13:33:12;;;;;;;;;0.00;0.00;;;;;;;;5057899;28;46190;-95
2021/08/22 13:35:37;;;;;;;;;2.00;0.00;;;;;;;;5073997;27;45447;-90
2021/08/22 13:38:03;;;;;;;;;0.00;0.00;;;;;;;;5072620;27;48982;-90
2021/08/22 13:40:29;;;;;;;;;0.00;0.00;;;;;;;;5072031;27;45350;-87
2021/08/22 13:42:54;;;;;;;;;1.00;0.00;;;;;;;;5072094;27;45674;-93
2021/08/22 13:45:20;;;;;;;;;1.00;1.00;;;;;;;;5068701;28;45486;-81
2021/08/22 13:47:45;;;;;;;;;1.00;0.00;;;;;;;;5071652;28;45356;-92
2021/08/22 13:50:10;;;;;;;;;1.00;1.00;;;;;;;;5073515;28;45433;-89
2021/08/22 13:52:35;;;;;;;;;0.00;0.00;;;;;;;;5073008;28;46146;-89
2021/08/22 13:55:01;;;;;;;;;0.67;0.00;;;;;;;;5068627;28;46704;-87
2021/08/22 13:57:26;;;;;;;;;1.00;1.00;;;;;;;;5071886;27;45593;-85
2021/08/22 13:59:51;;;;;;;;;0.00;0.00;;;;;;;;5069633;28;45636;-82
2021/08/22 14:02:16;;;;;;;;;0.00;0.00;;;;;;;;5066057;27;45367;-83
2021/08/22 14:04:41;;;;;;;;;2.00;0.00;;;;;;;;5066485;27;46034;-87
2021/08/22 14:07:07;;;;;;;;;1.00;0.33;;;;;;;;5064594;27;45437;-86
2021/08/22 14:09:32;;;;;;;;;0.00;0.00;;;;;;;;5074604;28;45422;-86
2021/08/22 14:11:57;;;;;;;;;2.00;1.00;;;;;;;;5070157;27;45390;-86
2021/08/22 14:14:27;;;;;;;;;2.67;1.00;;;;;;;;5067066;27;45433;-86
2021/08/22 14:16:53;;;;;;;;;1.00;0.25;;;;;;;;5070212;28;45306;-86
2021/08/22 14:19:18;;;;;;;;;1.00;1.00;;;;;;;;5059691;27;45567;-87
2021/08/22 14:21:43;;;;;;;;;3.00;0.67;;;;;;;;5057908;27;45736;-87
2021/08/22 14:24:08;;;;;;;;;2.50;1.00;;;;;;;;5071433;27;45354;-86
2021/08/22 14:26:34;;;;;;;;;1.00;1.00;;;;;;;;5046024;28;45341;-87
2021/08/22 14:28:59;;;;;;;;;2.50;1.00;;;;;;;;5068574;27;45431;-86
2021/08/22 14:31:24;;;;;;;;;1.33;1.00;;;;;;;;5071754;28;45413;-86
2021/08/22 14:33:50;;;;;;;;;0.00;0.00;;;;;;;;5067853;27;45475;-86
2021/08/22 14:36:15;;;;;;;;;1.00;1.00;;;;;;;;5064681;27;45579;-87
2021/08/22 14:38:41;;;;;;;;;1.75;0.25;;;;;;;;5065030;28;45436;-86
2021/08/22 14:41:06;;;;;;;;;1.00;1.00;;;;;;;;5065764;27;46246;-87
2021/08/22 14:43:31;;;;;;;;;8.67;7.67;;;;;;;;5062574;27;45753;-88
2021/08/22 14:45:56;;;;;;;;;4.67;3.33;;;;;;;;5053773;27;45861;-85